Terminal Aerodrome Forecast
Issued by NWS Portland, OR

Current Version | Previous Version | Text Only | Print | Product List | Glossary On
Versions: 1 2 3 4 5 6 7 8 9 10 11 12 13 14 15 16 17 18 19 20 21 22 23 24 25 26 27 28 29 30
823
FTUS46 KPQR 241139
TAFAST
TAF
KAST 241139Z 2412/2512 VRB03KT P6SM SCT008 OVC015
     FM241600 14004KT P6SM BKN015 BKN025
     FM241900 31004KT P6SM SCT025 BKN035
     FM242200 31012KT P6SM BKN035
     FM250400 31008KT P6SM BKN025=

USA.gov is the U.S. government's official web portal to all federal, state and local government web resources and services.